sensor_id;sensor_type;location;lat;lon;timestamp;P1;durP1;ratioP1;P2;durP2;ratioP2
3547;SDS011;1788;49.400;11.092;2022-12-18T00:01:33;48.77;;;26.40;;
3547;SDS011;1788;49.400;11.092;2022-12-18T00:04:02;52.83;;;27.43;;
3547;SDS011;1788;49.400;11.092;2022-12-18T00:06:29;54.27;;;28.07;;
3547;SDS011;1788;49.400;11.092;2022-12-18T00:08:55;44.87;;;24.33;;
3547;SDS011;1788;49.400;11.092;2022-12-18T00:11:23;49.87;;;23.43;;
3547;SDS011;1788;49.400;11.092;2022-12-18T00:13:49;48.27;;;23.17;;
3547;SDS011;1788;49.400;11.092;2022-12-18T00:16:17;46.10;;;24.63;;
3547;SDS011;1788;49.400;11.092;2022-12-18T00:18:43;51.80;;;24.50;;
3547;SDS011;1788;49.400;11.092;2022-12-18T00:21:10;50.60;;;24.57;;
3547;SDS011;1788;49.400;11.092;2022-12-18T00:23:37;55.00;;;26.73;;
3547;SDS011;1788;49.400;11.092;2022-12-18T00:26:05;48.33;;;25.40;;
3547;SDS011;1788;49.400;11.092;2022-12-18T00:28:30;49.90;;;24.73;;
3547;SDS011;1788;49.400;11.092;2022-12-18T00:33:24;44.63;;;22.90;;
3547;SDS011;1788;49.400;11.092;2022-12-18T00:35:50;43.63;;;24.10;;
3547;SDS011;1788;49.400;11.092;2022-12-18T00:38:17;45.53;;;24.63;;
3547;SDS011;1788;49.400;11.092;2022-12-18T00:40:44;46.03;;;23.97;;
3547;SDS011;1788;49.400;11.092;2022-12-18T00:43:10;45.00;;;23.70;;
3547;SDS011;1788;49.400;11.092;2022-12-18T00:45:37;46.43;;;24.27;;
3547;SDS011;1788;49.400;11.092;2022-12-18T00:48:04;42.57;;;23.50;;
3547;SDS011;1788;49.400;11.092;2022-12-18T00:50:31;41.90;;;22.20;;
3547;SDS011;1788;49.400;11.092;2022-12-18T00:52:57;41.67;;;21.73;;
3547;SDS011;1788;49.400;11.092;2022-12-18T00:55:25;40.97;;;22.17;;
3547;SDS011;1788;49.400;11.092;2022-12-18T00:57:52;43.63;;;22.60;;
3547;SDS011;1788;49.400;11.092;2022-12-18T01:00:19;47.87;;;23.47;;
3547;SDS011;1788;49.400;11.092;2022-12-18T01:02:45;37.50;;;22.20;;
3547;SDS011;1788;49.400;11.092;2022-12-18T01:05:13;42.87;;;22.67;;
3547;SDS011;1788;49.400;11.092;2022-12-18T01:07:39;48.53;;;22.50;;
3547;SDS011;1788;49.400;11.092;2022-12-18T01:10:07;44.73;;;23.73;;
3547;SDS011;1788;49.400;11.092;2022-12-18T01:12:33;45.47;;;24.03;;
3547;SDS011;1788;49.400;11.092;2022-12-18T01:15:01;38.57;;;23.37;;
3547;SDS011;1788;49.400;11.092;2022-12-18T01:17:27;46.23;;;23.97;;
3547;SDS011;1788;49.400;11.092;2022-12-18T01:19:55;37.70;;;21.40;;
3547;SDS011;1788;49.400;11.092;2022-12-18T01:22:21;44.63;;;25.03;;
3547;SDS011;1788;49.400;11.092;2022-12-18T01:24:49;39.30;;;21.93;;
3547;SDS011;1788;49.400;11.092;2022-12-18T01:27:15;37.63;;;21.70;;
3547;SDS011;1788;49.400;11.092;2022-12-18T01:29:42;45.17;;;21.90;;
3547;SDS011;1788;49.400;11.092;2022-12-18T01:32:09;40.67;;;21.27;;
3547;SDS011;1788;49.400;11.092;2022-12-18T01:34:36;38.10;;;21.00;;
3547;SDS011;1788;49.400;11.092;2022-12-18T01:37:03;40.23;;;21.20;;
3547;SDS011;1788;49.400;11.092;2022-12-18T01:39:29;42.87;;;22.43;;
3547;SDS011;1788;49.400;11.092;2022-12-18T01:41:56;39.83;;;22.20;;
3547;SDS011;1788;49.400;11.092;2022-12-18T01:46:49;39.23;;;20.47;;
3547;SDS011;1788;49.400;11.092;2022-12-18T01:49:16;34.37;;;19.93;;
3547;SDS011;1788;49.400;11.092;2022-12-18T01:51:42;38.90;;;20.30;;
3547;SDS011;1788;49.400;11.092;2022-12-18T01:54:10;39.27;;;22.83;;
3547;SDS011;1788;49.400;11.092;2022-12-18T01:56:36;41.37;;;20.27;;
3547;SDS011;1788;49.400;11.092;2022-12-18T01:59:04;41.10;;;20.87;;
3547;SDS011;1788;49.400;11.092;2022-12-18T02:01:30;35.67;;;22.83;;
3547;SDS011;1788;49.400;11.092;2022-12-18T02:11:20;41.47;;;20.93;;
3547;SDS011;1788;49.400;11.092;2022-12-18T02:18:40;41.87;;;20.87;;
3547;SDS011;1788;49.400;11.092;2022-12-18T02:28:26;45.03;;;21.93;;
3547;SDS011;1788;49.400;11.092;2022-12-18T02:30:52;56.47;;;23.20;;
3547;SDS011;1788;49.400;11.092;2022-12-18T02:33:19;42.13;;;20.73;;
3547;SDS011;1788;49.400;11.092;2022-12-18T02:35:46;50.23;;;22.77;;
3547;SDS011;1788;49.400;11.092;2022-12-18T02:38:13;50.50;;;22.10;;
3547;SDS011;1788;49.400;11.092;2022-12-18T02:40:40;48.30;;;21.57;;
3547;SDS011;1788;49.400;11.092;2022-12-18T02:43:08;55.87;;;24.20;;
3547;SDS011;1788;49.400;11.092;2022-12-18T02:45:34;43.23;;;20.83;;
3547;SDS011;1788;49.400;11.092;2022-12-18T02:48:01;43.87;;;21.10;;
3547;SDS011;1788;49.400;11.092;2022-12-18T03:00:17;46.77;;;21.07;;
3547;SDS011;1788;49.400;11.092;2022-12-18T03:05:12;54.47;;;22.30;;
3547;SDS011;1788;49.400;11.092;2022-12-18T03:10:04;50.03;;;19.47;;
3547;SDS011;1788;49.400;11.092;2022-12-18T03:12:31;46.60;;;20.43;;
3547;SDS011;1788;49.400;11.092;2022-12-18T03:17:25;52.63;;;20.47;;
3547;SDS011;1788;49.400;11.092;2022-12-18T03:19:51;35.60;;;17.60;;
3547;SDS011;1788;49.400;11.092;2022-12-18T03:22:18;45.60;;;20.00;;
3547;SDS011;1788;49.400;11.092;2022-12-18T03:24:45;44.80;;;20.67;;
3547;SDS011;1788;49.400;11.092;2022-12-18T03:27:12;46.30;;;20.30;;
3547;SDS011;1788;49.400;11.092;2022-12-18T03:32:05;38.57;;;15.07;;
3547;SDS011;1788;49.400;11.092;2022-12-18T03:34:32;43.30;;;19.67;;
3547;SDS011;1788;49.400;11.092;2022-12-18T03:36:57;38.13;;;16.00;;
3547;SDS011;1788;49.400;11.092;2022-12-18T03:39:24;41.73;;;19.43;;
3547;SDS011;1788;49.400;11.092;2022-12-18T03:41:52;35.30;;;14.53;;
3547;SDS011;1788;49.400;11.092;2022-12-18T03:44:20;38.10;;;19.07;;
3547;SDS011;1788;49.400;11.092;2022-12-18T03:49:11;48.17;;;19.37;;
3547;SDS011;1788;49.400;11.092;2022-12-18T03:54:04;45.17;;;19.57;;
3547;SDS011;1788;49.400;11.092;2022-12-18T03:56:32;33.27;;;15.30;;
3547;SDS011;1788;49.400;11.092;2022-12-18T03:58:58;30.93;;;14.90;;
3547;SDS011;1788;49.400;11.092;2022-12-18T04:01:27;40.13;;;15.93;;
3547;SDS011;1788;49.400;11.092;2022-12-18T04:03:52;35.90;;;16.13;;
3547;SDS011;1788;49.400;11.092;2022-12-18T04:06:19;26.67;;;14.47;;
3547;SDS011;1788;49.400;11.092;2022-12-18T04:08:46;44.17;;;18.43;;
3547;SDS011;1788;49.400;11.092;2022-12-18T04:11:13;36.37;;;14.93;;
3547;SDS011;1788;49.400;11.092;2022-12-18T04:13:40;34.73;;;15.53;;
3547;SDS011;1788;49.400;11.092;2022-12-18T04:16:06;26.93;;;13.53;;
3547;SDS011;1788;49.400;11.092;2022-12-18T04:18:34;38.40;;;16.37;;
3547;SDS011;1788;49.400;11.092;2022-12-18T04:21:00;40.43;;;16.23;;
3547;SDS011;1788;49.400;11.092;2022-12-18T04:23:27;38.00;;;17.43;;
3547;SDS011;1788;49.400;11.092;2022-12-18T04:25:54;40.43;;;17.03;;
3547;SDS011;1788;49.400;11.092;2022-12-18T04:28:20;28.80;;;15.53;;
3547;SDS011;1788;49.400;11.092;2022-12-18T04:30:48;29.33;;;13.93;;
3547;SDS011;1788;49.400;11.092;2022-12-18T04:33:14;39.87;;;18.90;;
3547;SDS011;1788;49.400;11.092;2022-12-18T04:35:41;39.07;;;18.73;;
3547;SDS011;1788;49.400;11.092;2022-12-18T04:38:08;42.37;;;19.07;;
3547;SDS011;1788;49.400;11.092;2022-12-18T04:40:34;28.33;;;14.17;;
3547;SDS011;1788;49.400;11.092;2022-12-18T04:43:01;33.00;;;15.97;;
3547;SDS011;1788;49.400;11.092;2022-12-18T04:45:29;39.73;;;18.50;;
3547;SDS011;1788;49.400;11.092;2022-12-18T04:47:56;34.87;;;16.13;;
3547;SDS011;1788;49.400;11.092;2022-12-18T04:50:22;30.20;;;15.90;;
3547;SDS011;1788;49.400;11.092;2022-12-18T04:52:49;25.50;;;12.17;;
3547;SDS011;1788;49.400;11.092;2022-12-18T04:55:16;37.57;;;17.03;;
3547;SDS011;1788;49.400;11.092;2022-12-18T04:57:43;41.53;;;17.70;;
3547;SDS011;1788;49.400;11.092;2022-12-18T05:00:10;44.63;;;18.37;;
3547;SDS011;1788;49.400;11.092;2022-12-18T05:02:37;28.83;;;13.07;;
3547;SDS011;1788;49.400;11.092;2022-12-18T05:05:04;23.80;;;12.07;;
3547;SDS011;1788;49.400;11.092;2022-12-18T05:07:31;34.63;;;16.77;;
3547;SDS011;1788;49.400;11.092;2022-12-18T05:09:58;40.10;;;17.33;;
3547;SDS011;1788;49.400;11.092;2022-12-18T05:12:25;30.03;;;13.10;;
3547;SDS011;1788;49.400;11.092;2022-12-18T05:14:52;41.03;;;17.37;;
3547;SDS011;1788;49.400;11.092;2022-12-18T05:17:19;40.53;;;17.50;;
3547;SDS011;1788;49.400;11.092;2022-12-18T05:19:46;39.90;;;16.83;;
3547;SDS011;1788;49.400;11.092;2022-12-18T05:22:13;33.43;;;13.90;;
3547;SDS011;1788;49.400;11.092;2022-12-18T05:24:40;34.53;;;17.03;;
3547;SDS011;1788;49.400;11.092;2022-12-18T05:27:07;29.97;;;15.20;;
3547;SDS011;1788;49.400;11.092;2022-12-18T05:29:34;34.00;;;15.83;;
3547;SDS011;1788;49.400;11.092;2022-12-18T05:32:00;24.20;;;12.00;;
3547;SDS011;1788;49.400;11.092;2022-12-18T05:34:27;30.73;;;15.33;;
3547;SDS011;1788;49.400;11.092;2022-12-18T05:45:28;40.83;;;18.97;;
3547;SDS011;1788;49.400;11.092;2022-12-18T06:07:42;34.80;;;14.80;;
3547;SDS011;1788;49.400;11.092;2022-12-18T06:27:16;41.57;;;18.57;;
3547;SDS011;1788;49.400;11.092;2022-12-18T06:32:49;37.77;;;16.57;;
3547;SDS011;1788;49.400;11.092;2022-12-18T06:35:31;38.10;;;15.10;;
3547;SDS011;1788;49.400;11.092;2022-12-18T06:38:15;37.33;;;13.83;;
3547;SDS011;1788;49.400;11.092;2022-12-18T06:40:55;37.17;;;17.07;;
3547;SDS011;1788;49.400;11.092;2022-12-18T07:02:59;33.70;;;15.30;;
3547;SDS011;1788;49.400;11.092;2022-12-18T07:08:24;29.03;;;14.23;;
3547;SDS011;1788;49.400;11.092;2022-12-18T07:16:36;32.10;;;13.97;;
3547;SDS011;1788;49.400;11.092;2022-12-18T07:19:27;36.10;;;14.13;;
3547;SDS011;1788;49.400;11.092;2022-12-18T07:22:17;27.87;;;11.20;;
3547;SDS011;1788;49.400;11.092;2022-12-18T07:30:48;28.17;;;14.20;;
3547;SDS011;1788;49.400;11.092;2022-12-18T07:33:23;33.07;;;13.37;;
3547;SDS011;1788;49.400;11.092;2022-12-18T07:41:26;33.67;;;13.27;;
3547;SDS011;1788;49.400;11.092;2022-12-18T08:01:05;27.20;;;11.67;;
3547;SDS011;1788;49.400;11.092;2022-12-18T08:03:46;26.30;;;11.43;;
3547;SDS011;1788;49.400;11.092;2022-12-18T08:12:18;26.03;;;11.00;;
3547;SDS011;1788;49.400;11.092;2022-12-18T08:40:23;33.20;;;13.60;;
3547;SDS011;1788;49.400;11.092;2022-12-18T08:48:50;26.50;;;12.23;;
3547;SDS011;1788;49.400;11.092;2022-12-18T08:51:30;29.17;;;12.43;;
3547;SDS011;1788;49.400;11.092;2022-12-18T08:59:49;29.33;;;12.60;;
3547;SDS011;1788;49.400;11.092;2022-12-18T09:10:56;31.00;;;15.20;;
3547;SDS011;1788;49.400;11.092;2022-12-18T10:00:54;26.60;;;12.33;;
3547;SDS011;1788;49.400;11.092;2022-12-18T10:03:33;24.80;;;11.43;;
3547;SDS011;1788;49.400;11.092;2022-12-18T10:06:22;25.60;;;12.73;;
3547;SDS011;1788;49.400;11.092;2022-12-18T10:14:08;26.90;;;13.00;;
3547;SDS011;1788;49.400;11.092;2022-12-18T10:26:20;28.67;;;12.53;;
3547;SDS011;1788;49.400;11.092;2022-12-18T10:28:48;29.17;;;12.30;;
3547;SDS011;1788;49.400;11.092;2022-12-18T10:31:16;27.47;;;13.80;;
3547;SDS011;1788;49.400;11.092;2022-12-18T10:33:41;27.00;;;13.07;;
3547;SDS011;1788;49.400;11.092;2022-12-18T10:36:08;29.00;;;14.50;;
3547;SDS011;1788;49.400;11.092;2022-12-18T10:38:34;38.67;;;16.77;;
3547;SDS011;1788;49.400;11.092;2022-12-18T10:41:02;33.67;;;13.57;;
3547;SDS011;1788;49.400;11.092;2022-12-18T10:43:29;36.03;;;15.10;;
3547;SDS011;1788;49.400;11.092;2022-12-18T10:48:21;27.37;;;12.33;;
3547;SDS011;1788;49.400;11.092;2022-12-18T10:50:49;25.40;;;13.97;;
3547;SDS011;1788;49.400;11.092;2022-12-18T10:53:20;24.97;;;10.07;;
3547;SDS011;1788;49.400;11.092;2022-12-18T10:55:44;29.53;;;13.20;;
3547;SDS011;1788;49.400;11.092;2022-12-18T11:00:37;32.43;;;13.00;;
3547;SDS011;1788;49.400;11.092;2022-12-18T11:03:07;25.93;;;12.70;;
3547;SDS011;1788;49.400;11.092;2022-12-18T11:05:31;29.17;;;13.50;;
3547;SDS011;1788;49.400;11.092;2022-12-18T11:07:57;29.97;;;14.17;;
3547;SDS011;1788;49.400;11.092;2022-12-18T11:10:26;23.90;;;11.70;;
3547;SDS011;1788;49.400;11.092;2022-12-18T11:12:50;64.07;;;26.17;;
3547;SDS011;1788;49.400;11.092;2022-12-18T11:17:44;32.83;;;14.10;;
3547;SDS011;1788;49.400;11.092;2022-12-18T11:22:39;68.50;;;24.90;;
3547;SDS011;1788;49.400;11.092;2022-12-18T11:25:06;94.40;;;31.03;;
3547;SDS011;1788;49.400;11.092;2022-12-18T11:27:32;33.17;;;13.53;;
3547;SDS011;1788;49.400;11.092;2022-12-18T11:32:30;29.33;;;13.67;;
3547;SDS011;1788;49.400;11.092;2022-12-18T11:37:20;35.03;;;15.67;;
3547;SDS011;1788;49.400;11.092;2022-12-18T11:47:11;25.40;;;12.90;;
3547;SDS011;1788;49.400;11.092;2022-12-18T11:49:35;31.60;;;12.20;;
3547;SDS011;1788;49.400;11.092;2022-12-18T11:52:04;33.00;;;12.50;;
3547;SDS011;1788;49.400;11.092;2022-12-18T11:54:29;23.20;;;12.63;;
3547;SDS011;1788;49.400;11.092;2022-12-18T11:56:58;29.30;;;13.00;;
3547;SDS011;1788;49.400;11.092;2022-12-18T11:59:26;22.67;;;11.57;;
3547;SDS011;1788;49.400;11.092;2022-12-18T12:01:50;22.53;;;10.80;;
3547;SDS011;1788;49.400;11.092;2022-12-18T12:21:28;27.90;;;13.70;;
3547;SDS011;1788;49.400;11.092;2022-12-18T12:36:09;30.07;;;13.40;;
3547;SDS011;1788;49.400;11.092;2022-12-18T12:41:02;32.13;;;14.43;;
3547;SDS011;1788;49.400;11.092;2022-12-18T12:50:46;26.77;;;12.20;;
3547;SDS011;1788;49.400;11.092;2022-12-18T12:53:16;26.07;;;12.57;;
3547;SDS011;1788;49.400;11.092;2022-12-18T12:55:39;25.63;;;12.10;;
3547;SDS011;1788;49.400;11.092;2022-12-18T13:05:33;25.40;;;11.70;;
3547;SDS011;1788;49.400;11.092;2022-12-18T13:07:54;31.80;;;15.37;;
3547;SDS011;1788;49.400;11.092;2022-12-18T13:10:25;40.97;;;14.73;;
3547;SDS011;1788;49.400;11.092;2022-12-18T13:15:20;30.43;;;13.57;;
3547;SDS011;1788;49.400;11.092;2022-12-18T13:17:39;29.23;;;13.40;;
3547;SDS011;1788;49.400;11.092;2022-12-18T13:20:08;25.00;;;13.20;;
3547;SDS011;1788;49.400;11.092;2022-12-18T13:25:00;28.93;;;14.20;;
3547;SDS011;1788;49.400;11.092;2022-12-18T13:29:53;28.60;;;13.07;;
3547;SDS011;1788;49.400;11.092;2022-12-18T13:34:46;30.37;;;12.67;;
3547;SDS011;1788;49.400;11.092;2022-12-18T13:39:40;26.63;;;12.27;;
3547;SDS011;1788;49.400;11.092;2022-12-18T13:44:34;26.13;;;13.13;;
3547;SDS011;1788;49.400;11.092;2022-12-18T13:47:01;29.57;;;13.53;;
3547;SDS011;1788;49.400;11.092;2022-12-18T13:51:54;26.07;;;12.67;;
3547;SDS011;1788;49.400;11.092;2022-12-18T13:56:47;32.90;;;14.23;;
3547;SDS011;1788;49.400;11.092;2022-12-18T13:59:16;28.07;;;12.43;;
3547;SDS011;1788;49.400;11.092;2022-12-18T14:06:34;26.37;;;13.73;;
3547;SDS011;1788;49.400;11.092;2022-12-18T14:09:00;23.47;;;10.83;;
3547;SDS011;1788;49.400;11.092;2022-12-18T14:11:27;32.57;;;12.93;;
3547;SDS011;1788;49.400;11.092;2022-12-18T14:13:53;24.40;;;12.50;;
3547;SDS011;1788;49.400;11.092;2022-12-18T14:16:20;28.30;;;13.37;;
3547;SDS011;1788;49.400;11.092;2022-12-18T14:23:41;20.27;;;11.40;;
3547;SDS011;1788;49.400;11.092;2022-12-18T14:28:42;30.27;;;12.73;;
3547;SDS011;1788;49.400;11.092;2022-12-18T14:31:00;29.87;;;13.30;;
3547;SDS011;1788;49.400;11.092;2022-12-18T14:33:27;21.60;;;12.97;;
3547;SDS011;1788;49.400;11.092;2022-12-18T14:40:47;25.83;;;12.47;;
3547;SDS011;1788;49.400;11.092;2022-12-18T14:43:14;29.47;;;12.17;;
3547;SDS011;1788;49.400;11.092;2022-12-18T14:45:42;23.63;;;10.97;;
3547;SDS011;1788;49.400;11.092;2022-12-18T14:48:11;27.13;;;12.70;;
3547;SDS011;1788;49.400;11.092;2022-12-18T14:50:35;26.60;;;12.40;;
3547;SDS011;1788;49.400;11.092;2022-12-18T14:53:02;22.97;;;12.43;;
3547;SDS011;1788;49.400;11.092;2022-12-18T14:55:29;29.17;;;12.77;;
3547;SDS011;1788;49.400;11.092;2022-12-18T14:57:56;26.80;;;13.77;;
3547;SDS011;1788;49.400;11.092;2022-12-18T15:00:23;27.23;;;12.97;;
3547;SDS011;1788;49.400;11.092;2022-12-18T15:07:45;30.47;;;12.77;;
3547;SDS011;1788;49.400;11.092;2022-12-18T15:12:37;26.87;;;11.93;;
3547;SDS011;1788;49.400;11.092;2022-12-18T15:15:03;29.10;;;14.03;;
3547;SDS011;1788;49.400;11.092;2022-12-18T15:17:29;26.23;;;12.93;;
3547;SDS011;1788;49.400;11.092;2022-12-18T15:24:51;25.30;;;12.20;;
3547;SDS011;1788;49.400;11.092;2022-12-18T15:29:58;26.13;;;11.80;;
3547;SDS011;1788;49.400;11.092;2022-12-18T15:34:39;25.87;;;13.87;;
3547;SDS011;1788;49.400;11.092;2022-12-18T15:37:07;26.70;;;13.57;;
3547;SDS011;1788;49.400;11.092;2022-12-18T15:39:33;27.10;;;13.90;;
3547;SDS011;1788;49.400;11.092;2022-12-18T15:42:00;26.60;;;13.13;;
3547;SDS011;1788;49.400;11.092;2022-12-18T15:44:26;29.27;;;12.67;;
3547;SDS011;1788;49.400;11.092;2022-12-18T15:46:53;28.80;;;14.03;;
3547;SDS011;1788;49.400;11.092;2022-12-18T15:49:19;33.20;;;14.23;;
3547;SDS011;1788;49.400;11.092;2022-12-18T15:51:49;31.50;;;13.93;;
3547;SDS011;1788;49.400;11.092;2022-12-18T15:54:13;27.50;;;12.60;;
3547;SDS011;1788;49.400;11.092;2022-12-18T15:59:10;34.07;;;14.80;;
3547;SDS011;1788;49.400;11.092;2022-12-18T16:01:35;35.40;;;14.93;;
3547;SDS011;1788;49.400;11.092;2022-12-18T16:04:02;24.43;;;12.03;;
3547;SDS011;1788;49.400;11.092;2022-12-18T16:06:29;30.77;;;14.03;;
3547;SDS011;1788;49.400;11.092;2022-12-18T16:08:56;35.30;;;14.83;;
3547;SDS011;1788;49.400;11.092;2022-12-18T16:13:50;25.47;;;13.73;;
3547;SDS011;1788;49.400;11.092;2022-12-18T16:16:17;32.77;;;14.87;;
3547;SDS011;1788;49.400;11.092;2022-12-18T16:18:44;35.40;;;14.67;;
3547;SDS011;1788;49.400;11.092;2022-12-18T16:21:11;31.13;;;14.77;;
3547;SDS011;1788;49.400;11.092;2022-12-18T16:23:38;27.67;;;12.13;;
3547;SDS011;1788;49.400;11.092;2022-12-18T16:26:04;30.80;;;13.37;;
3547;SDS011;1788;49.400;11.092;2022-12-18T16:28:31;31.90;;;13.47;;
3547;SDS011;1788;49.400;11.092;2022-12-18T16:30:57;31.17;;;14.60;;
3547;SDS011;1788;49.400;11.092;2022-12-18T16:33:25;34.57;;;15.10;;
3547;SDS011;1788;49.400;11.092;2022-12-18T16:35:52;25.30;;;14.47;;
3547;SDS011;1788;49.400;11.092;2022-12-18T16:38:18;39.83;;;16.37;;
3547;SDS011;1788;49.400;11.092;2022-12-18T16:40:45;30.77;;;14.27;;
3547;SDS011;1788;49.400;11.092;2022-12-18T16:43:11;34.47;;;14.10;;
3547;SDS011;1788;49.400;11.092;2022-12-18T16:45:38;30.97;;;13.03;;
3547;SDS011;1788;49.400;11.092;2022-12-18T16:48:05;31.83;;;14.17;;
3547;SDS011;1788;49.400;11.092;2022-12-18T16:50:31;33.03;;;15.50;;
3547;SDS011;1788;49.400;11.092;2022-12-18T16:52:58;33.50;;;15.20;;
3547;SDS011;1788;49.400;11.092;2022-12-18T16:55:25;32.80;;;15.10;;
3547;SDS011;1788;49.400;11.092;2022-12-18T16:57:52;33.60;;;14.87;;
3547;SDS011;1788;49.400;11.092;2022-12-18T17:00:18;27.53;;;13.93;;
3547;SDS011;1788;49.400;11.092;2022-12-18T17:02:46;29.67;;;14.57;;
3547;SDS011;1788;49.400;11.092;2022-12-18T17:05:12;32.57;;;14.77;;
3547;SDS011;1788;49.400;11.092;2022-12-18T17:07:40;27.20;;;14.77;;
3547;SDS011;1788;49.400;11.092;2022-12-18T17:10:06;35.27;;;15.77;;
3547;SDS011;1788;49.400;11.092;2022-12-18T17:12:33;35.87;;;15.03;;
3547;SDS011;1788;49.400;11.092;2022-12-18T17:14:59;32.87;;;16.30;;
3547;SDS011;1788;49.400;11.092;2022-12-18T17:17:26;34.43;;;16.17;;
3547;SDS011;1788;49.400;11.092;2022-12-18T17:19:53;32.97;;;13.73;;
3547;SDS011;1788;49.400;11.092;2022-12-18T17:22:20;37.77;;;16.00;;
3547;SDS011;1788;49.400;11.092;2022-12-18T17:24:47;30.37;;;14.80;;
3547;SDS011;1788;49.400;11.092;2022-12-18T17:27:14;34.70;;;17.33;;
3547;SDS011;1788;49.400;11.092;2022-12-18T17:29:41;34.77;;;15.60;;
3547;SDS011;1788;49.400;11.092;2022-12-18T17:32:08;38.00;;;16.67;;
3547;SDS011;1788;49.400;11.092;2022-12-18T17:34:35;31.70;;;14.00;;
3547;SDS011;1788;49.400;11.092;2022-12-18T17:37:02;32.07;;;15.00;;
3547;SDS011;1788;49.400;11.092;2022-12-18T17:39:29;30.43;;;14.93;;
3547;SDS011;1788;49.400;11.092;2022-12-18T17:41:56;35.53;;;15.37;;
3547;SDS011;1788;49.400;11.092;2022-12-18T17:44:23;34.13;;;15.77;;
3547;SDS011;1788;49.400;11.092;2022-12-18T17:46:50;36.70;;;16.90;;
3547;SDS011;1788;49.400;11.092;2022-12-18T17:49:17;33.80;;;14.90;;
3547;SDS011;1788;49.400;11.092;2022-12-18T17:51:43;27.37;;;13.23;;
3547;SDS011;1788;49.400;11.092;2022-12-18T17:54:10;38.23;;;16.27;;
3547;SDS011;1788;49.400;11.092;2022-12-18T17:56:37;36.23;;;17.97;;
3547;SDS011;1788;49.400;11.092;2022-12-18T17:59:03;37.80;;;15.43;;
3547;SDS011;1788;49.400;11.092;2022-12-18T18:01:30;38.13;;;16.77;;
3547;SDS011;1788;49.400;11.092;2022-12-18T18:03:57;33.60;;;15.27;;
3547;SDS011;1788;49.400;11.092;2022-12-18T18:06:24;37.90;;;17.83;;
3547;SDS011;1788;49.400;11.092;2022-12-18T18:08:50;27.97;;;13.23;;
3547;SDS011;1788;49.400;11.092;2022-12-18T18:11:18;36.50;;;16.00;;
3547;SDS011;1788;49.400;11.092;2022-12-18T18:13:44;37.53;;;17.63;;
3547;SDS011;1788;49.400;11.092;2022-12-18T18:16:11;33.77;;;15.77;;
3547;SDS011;1788;49.400;11.092;2022-12-18T18:18:38;35.27;;;17.77;;
3547;SDS011;1788;49.400;11.092;2022-12-18T18:21:05;37.13;;;18.50;;
3547;SDS011;1788;49.400;11.092;2022-12-18T18:23:32;36.53;;;17.07;;
3547;SDS011;1788;49.400;11.092;2022-12-18T18:28:25;36.47;;;16.27;;
3547;SDS011;1788;49.400;11.092;2022-12-18T18:30:52;49.20;;;19.67;;
3547;SDS011;1788;49.400;11.092;2022-12-18T18:33:18;41.70;;;18.60;;
3547;SDS011;1788;49.400;11.092;2022-12-18T18:35:45;35.90;;;17.57;;
3547;SDS011;1788;49.400;11.092;2022-12-18T18:38:11;36.50;;;16.37;;
3547;SDS011;1788;49.400;11.092;2022-12-18T18:40:38;33.17;;;17.10;;
3547;SDS011;1788;49.400;11.092;2022-12-18T18:43:05;38.20;;;17.50;;
3547;SDS011;1788;49.400;11.092;2022-12-18T18:45:31;33.97;;;17.80;;
3547;SDS011;1788;49.400;11.092;2022-12-18T18:47:58;34.93;;;17.63;;
3547;SDS011;1788;49.400;11.092;2022-12-18T18:50:25;43.57;;;20.67;;
3547;SDS011;1788;49.400;11.092;2022-12-18T18:52:52;36.53;;;17.57;;
3547;SDS011;1788;49.400;11.092;2022-12-18T18:55:19;38.77;;;17.67;;
3547;SDS011;1788;49.400;11.092;2022-12-18T18:57:46;33.97;;;17.57;;
3547;SDS011;1788;49.400;11.092;2022-12-18T19:00:13;31.43;;;15.73;;
3547;SDS011;1788;49.400;11.092;2022-12-18T19:02:40;42.60;;;17.23;;
3547;SDS011;1788;49.400;11.092;2022-12-18T19:05:07;39.43;;;17.07;;
3547;SDS011;1788;49.400;11.092;2022-12-18T19:07:34;35.93;;;18.03;;
3547;SDS011;1788;49.400;11.092;2022-12-18T19:10:01;38.13;;;17.63;;
3547;SDS011;1788;49.400;11.092;2022-12-18T19:12:27;40.67;;;17.10;;
3547;SDS011;1788;49.400;11.092;2022-12-18T19:14:54;32.17;;;16.53;;
3547;SDS011;1788;49.400;11.092;2022-12-18T19:17:20;36.97;;;18.07;;
3547;SDS011;1788;49.400;11.092;2022-12-18T19:19:47;32.90;;;16.37;;
3547;SDS011;1788;49.400;11.092;2022-12-18T19:22:14;33.87;;;15.67;;
3547;SDS011;1788;49.400;11.092;2022-12-18T19:24:40;41.30;;;17.47;;
3547;SDS011;1788;49.400;11.092;2022-12-18T19:27:07;34.47;;;16.10;;
3547;SDS011;1788;49.400;11.092;2022-12-18T19:29:33;28.97;;;15.50;;
3547;SDS011;1788;49.400;11.092;2022-12-18T19:32:00;29.90;;;14.77;;
3547;SDS011;1788;49.400;11.092;2022-12-18T19:34:27;36.47;;;14.00;;
3547;SDS011;1788;49.400;11.092;2022-12-18T19:36:53;33.53;;;15.83;;
3547;SDS011;1788;49.400;11.092;2022-12-18T19:39:21;31.33;;;14.83;;
3547;SDS011;1788;49.400;11.092;2022-12-18T19:41:48;30.47;;;16.47;;
3547;SDS011;1788;49.400;11.092;2022-12-18T19:44:15;32.90;;;15.13;;
3547;SDS011;1788;49.400;11.092;2022-12-18T19:46:42;31.27;;;16.07;;
3547;SDS011;1788;49.400;11.092;2022-12-18T19:49:09;31.53;;;14.47;;
3547;SDS011;1788;49.400;11.092;2022-12-18T19:51:35;31.53;;;14.73;;
3547;SDS011;1788;49.400;11.092;2022-12-18T19:54:01;30.13;;;14.53;;
3547;SDS011;1788;49.400;11.092;2022-12-18T19:56:29;30.93;;;15.30;;
3547;SDS011;1788;49.400;11.092;2022-12-18T19:58:55;28.17;;;14.43;;
3547;SDS011;1788;49.400;11.092;2022-12-18T20:01:22;32.67;;;14.93;;
3547;SDS011;1788;49.400;11.092;2022-12-18T20:03:48;30.93;;;13.80;;
3547;SDS011;1788;49.400;11.092;2022-12-18T20:08:43;31.27;;;16.23;;
3547;SDS011;1788;49.400;11.092;2022-12-18T20:11:11;33.57;;;15.77;;
3547;SDS011;1788;49.400;11.092;2022-12-18T20:13:37;28.57;;;14.50;;
3547;SDS011;1788;49.400;11.092;2022-12-18T20:16:04;28.47;;;15.77;;
3547;SDS011;1788;49.400;11.092;2022-12-18T20:18:30;39.50;;;18.10;;
3547;SDS011;1788;49.400;11.092;2022-12-18T20:20:57;29.80;;;16.23;;
3547;SDS011;1788;49.400;11.092;2022-12-18T20:23:23;27.90;;;14.00;;
3547;SDS011;1788;49.400;11.092;2022-12-18T20:28:18;27.27;;;14.70;;
3547;SDS011;1788;49.400;11.092;2022-12-18T20:30:44;32.97;;;15.33;;
3547;SDS011;1788;49.400;11.092;2022-12-18T20:33:11;31.07;;;14.37;;
3547;SDS011;1788;49.400;11.092;2022-12-18T20:35:37;26.93;;;13.73;;
3547;SDS011;1788;49.400;11.092;2022-12-18T20:38:04;37.17;;;16.13;;
3547;SDS011;1788;49.400;11.092;2022-12-18T20:40:31;32.00;;;15.80;;
3547;SDS011;1788;49.400;11.092;2022-12-18T20:42:57;28.80;;;14.40;;
3547;SDS011;1788;49.400;11.092;2022-12-18T20:45:24;33.80;;;14.97;;
3547;SDS011;1788;49.400;11.092;2022-12-18T20:47:52;29.40;;;14.30;;
3547;SDS011;1788;49.400;11.092;2022-12-18T20:50:17;34.20;;;15.60;;
3547;SDS011;1788;49.400;11.092;2022-12-18T20:52:46;35.73;;;16.40;;
3547;SDS011;1788;49.400;11.092;2022-12-18T20:55:11;26.40;;;13.37;;
3547;SDS011;1788;49.400;11.092;2022-12-18T20:57:38;31.30;;;14.23;;
3547;SDS011;1788;49.400;11.092;2022-12-18T21:00:05;28.03;;;13.57;;
3547;SDS011;1788;49.400;11.092;2022-12-18T21:02:31;27.53;;;13.97;;
3547;SDS011;1788;49.400;11.092;2022-12-18T21:04:58;29.07;;;14.67;;
3547;SDS011;1788;49.400;11.092;2022-12-18T21:07:25;24.20;;;12.23;;
3547;SDS011;1788;49.400;11.092;2022-12-18T21:09:52;27.33;;;14.20;;
3547;SDS011;1788;49.400;11.092;2022-12-18T21:12:19;28.70;;;14.17;;
3547;SDS011;1788;49.400;11.092;2022-12-18T21:14:46;27.77;;;14.30;;
3547;SDS011;1788;49.400;11.092;2022-12-18T21:17:13;29.50;;;13.63;;